sensor_id;sensor_type;location;lat;lon;timestamp;P1;durP1;ratioP1;P2;durP2;ratioP2
30505;SDS011;17292;51.600;4.994;2023-02-28T00:01:07;4.68;;;1.38;;
30505;SDS011;17292;51.600;4.994;2023-02-28T00:03:33;6.20;;;1.55;;
30505;SDS011;17292;51.600;4.994;2023-02-28T00:06:04;4.05;;;1.67;;
30505;SDS011;17292;51.600;4.994;2023-02-28T00:08:30;5.70;;;1.40;;
30505;SDS011;17292;51.600;4.994;2023-02-28T00:11:00;4.40;;;1.20;;
30505;SDS011;17292;51.600;4.994;2023-02-28T00:13:26;4.32;;;1.33;;
30505;SDS011;17292;51.600;4.994;2023-02-28T00:16:09;2.58;;;1.13;;
30505;SDS011;17292;51.600;4.994;2023-02-28T00:18:35;5.60;;;1.55;;
30505;SDS011;17292;51.600;4.994;2023-02-28T00:21:02;4.90;;;1.70;;
30505;SDS011;17292;51.600;4.994;2023-02-28T00:23:28;6.50;;;1.40;;
30505;SDS011;17292;51.600;4.994;2023-02-28T00:25:54;3.42;;;1.38;;
30505;SDS011;17292;51.600;4.994;2023-02-28T00:28:20;4.88;;;1.45;;
30505;SDS011;17292;51.600;4.994;2023-02-28T00:30:47;4.68;;;1.48;;
30505;SDS011;17292;51.600;4.994;2023-02-28T00:33:13;4.25;;;1.30;;
30505;SDS011;17292;51.600;4.994;2023-02-28T00:35:39;3.92;;;1.52;;
30505;SDS011;17292;51.600;4.994;2023-02-28T00:38:05;3.13;;;1.45;;
30505;SDS011;17292;51.600;4.994;2023-02-28T00:40:31;4.35;;;1.45;;
30505;SDS011;17292;51.600;4.994;2023-02-28T00:42:57;5.50;;;1.33;;
30505;SDS011;17292;51.600;4.994;2023-02-28T00:45:23;3.83;;;1.63;;
30505;SDS011;17292;51.600;4.994;2023-02-28T00:47:50;3.28;;;1.30;;
30505;SDS011;17292;51.600;4.994;2023-02-28T00:50:17;4.10;;;1.48;;
30505;SDS011;17292;51.600;4.994;2023-02-28T00:52:43;5.63;;;1.65;;
30505;SDS011;17292;51.600;4.994;2023-02-28T00:55:09;9.90;;;1.85;;
30505;SDS011;17292;51.600;4.994;2023-02-28T00:57:35;3.42;;;1.27;;
30505;SDS011;17292;51.600;4.994;2023-02-28T01:00:02;2.80;;;1.05;;
30505;SDS011;17292;51.600;4.994;2023-02-28T01:02:29;5.28;;;1.63;;
30505;SDS011;17292;51.600;4.994;2023-02-28T01:04:55;5.10;;;1.42;;
30505;SDS011;17292;51.600;4.994;2023-02-28T01:07:22;3.35;;;1.38;;
30505;SDS011;17292;51.600;4.994;2023-02-28T01:09:48;4.97;;;1.90;;
30505;SDS011;17292;51.600;4.994;2023-02-28T01:12:14;4.07;;;1.48;;
30505;SDS011;17292;51.600;4.994;2023-02-28T01:14:41;4.43;;;1.33;;
30505;SDS011;17292;51.600;4.994;2023-02-28T01:17:08;5.22;;;1.67;;
30505;SDS011;17292;51.600;4.994;2023-02-28T01:19:34;2.92;;;1.33;;
30505;SDS011;17292;51.600;4.994;2023-02-28T01:22:04;4.28;;;1.38;;
30505;SDS011;17292;51.600;4.994;2023-02-28T01:24:30;2.97;;;1.20;;
30505;SDS011;17292;51.600;4.994;2023-02-28T01:26:56;11.60;;;1.98;;
30505;SDS011;17292;51.600;4.994;2023-02-28T01:29:22;5.20;;;1.48;;
30505;SDS011;17292;51.600;4.994;2023-02-28T01:31:48;3.88;;;1.38;;
30505;SDS011;17292;51.600;4.994;2023-02-28T01:34:15;3.20;;;1.40;;
30505;SDS011;17292;51.600;4.994;2023-02-28T01:36:44;5.40;;;1.23;;
30505;SDS011;17292;51.600;4.994;2023-02-28T01:39:10;3.45;;;1.48;;
30505;SDS011;17292;51.600;4.994;2023-02-28T01:41:37;5.32;;;1.50;;
30505;SDS011;17292;51.600;4.994;2023-02-28T01:44:06;5.18;;;2.08;;
30505;SDS011;17292;51.600;4.994;2023-02-28T01:46:33;3.53;;;1.02;;
30505;SDS011;17292;51.600;4.994;2023-02-28T01:51:34;4.75;;;1.35;;
30505;SDS011;17292;51.600;4.994;2023-02-28T01:54:05;4.17;;;1.43;;
30505;SDS011;17292;51.600;4.994;2023-02-28T01:56:39;3.22;;;1.10;;
30505;SDS011;17292;51.600;4.994;2023-02-28T01:59:06;4.15;;;1.40;;
30505;SDS011;17292;51.600;4.994;2023-02-28T02:01:32;3.08;;;1.35;;
30505;SDS011;17292;51.600;4.994;2023-02-28T02:03:59;5.55;;;1.77;;
30505;SDS011;17292;51.600;4.994;2023-02-28T02:06:33;5.05;;;1.50;;
30505;SDS011;17292;51.600;4.994;2023-02-28T02:09:00;4.10;;;1.45;;
30505;SDS011;17292;51.600;4.994;2023-02-28T02:11:26;3.65;;;1.60;;
30505;SDS011;17292;51.600;4.994;2023-02-28T02:19:25;1.80;;;1.20;;
30505;SDS011;17292;51.600;4.994;2023-02-28T02:22:00;3.53;;;1.40;;
30505;SDS011;17292;51.600;4.994;2023-02-28T02:27:12;6.65;;;1.60;;
30505;SDS011;17292;51.600;4.994;2023-02-28T02:37:39;3.88;;;1.10;;
30505;SDS011;17292;51.600;4.994;2023-02-28T02:40:16;3.78;;;1.38;;
30505;SDS011;17292;51.600;4.994;2023-02-28T02:42:51;4.60;;;1.10;;
30505;SDS011;17292;51.600;4.994;2023-02-28T02:45:42;3.90;;;1.45;;
30505;SDS011;17292;51.600;4.994;2023-02-28T02:48:11;3.05;;;1.50;;
30505;SDS011;17292;51.600;4.994;2023-02-28T02:50:42;2.33;;;1.10;;
30505;SDS011;17292;51.600;4.994;2023-02-28T02:53:10;3.85;;;1.30;;
30505;SDS011;17292;51.600;4.994;2023-02-28T02:55:38;3.08;;;1.38;;
30505;SDS011;17292;51.600;4.994;2023-02-28T02:58:07;5.95;;;1.58;;
30505;SDS011;17292;51.600;4.994;2023-02-28T03:00:35;7.82;;;1.45;;
30505;SDS011;17292;51.600;4.994;2023-02-28T03:03:03;3.20;;;1.25;;
30505;SDS011;17292;51.600;4.994;2023-02-28T03:05:32;2.63;;;1.20;;
30505;SDS011;17292;51.600;4.994;2023-02-28T03:08:02;2.83;;;1.17;;
30505;SDS011;17292;51.600;4.994;2023-02-28T03:10:32;4.10;;;1.45;;
30505;SDS011;17292;51.600;4.994;2023-02-28T03:13:11;2.65;;;1.50;;
30505;SDS011;17292;51.600;4.994;2023-02-28T03:15:43;6.80;;;1.40;;
30505;SDS011;17292;51.600;4.994;2023-02-28T03:18:16;4.60;;;1.48;;
30505;SDS011;17292;51.600;4.994;2023-02-28T03:23:15;3.55;;;1.30;;
30505;SDS011;17292;51.600;4.994;2023-02-28T03:25:54;2.03;;;1.10;;
30505;SDS011;17292;51.600;4.994;2023-02-28T03:28:55;3.60;;;1.40;;
30505;SDS011;17292;51.600;4.994;2023-02-28T03:31:19;2.35;;;1.20;;
30505;SDS011;17292;51.600;4.994;2023-02-28T03:33:49;2.47;;;1.15;;
30505;SDS011;17292;51.600;4.994;2023-02-28T03:36:21;2.17;;;1.30;;
30505;SDS011;17292;51.600;4.994;2023-02-28T03:38:58;3.65;;;1.13;;
30505;SDS011;17292;51.600;4.994;2023-02-28T03:44:24;4.03;;;1.30;;
30505;SDS011;17292;51.600;4.994;2023-02-28T03:46:53;2.58;;;1.10;;
30505;SDS011;17292;51.600;4.994;2023-02-28T03:49:22;3.97;;;1.33;;
30505;SDS011;17292;51.600;4.994;2023-02-28T03:51:49;3.08;;;1.20;;
30505;SDS011;17292;51.600;4.994;2023-02-28T03:54:18;3.30;;;1.33;;
30505;SDS011;17292;51.600;4.994;2023-02-28T03:56:51;2.30;;;0.90;;
30505;SDS011;17292;51.600;4.994;2023-02-28T03:59:22;1.58;;;1.10;;
30505;SDS011;17292;51.600;4.994;2023-02-28T04:01:52;3.28;;;1.00;;
30505;SDS011;17292;51.600;4.994;2023-02-28T04:04:19;2.25;;;0.82;;
30505;SDS011;17292;51.600;4.994;2023-02-28T04:06:45;2.15;;;1.30;;
30505;SDS011;17292;51.600;4.994;2023-02-28T04:09:15;3.78;;;1.10;;
30505;SDS011;17292;51.600;4.994;2023-02-28T04:14:10;2.33;;;1.00;;
30505;SDS011;17292;51.600;4.994;2023-02-28T04:16:38;2.83;;;1.35;;
30505;SDS011;17292;51.600;4.994;2023-02-28T04:19:05;3.90;;;1.00;;
30505;SDS011;17292;51.600;4.994;2023-02-28T04:21:32;2.25;;;1.25;;
30505;SDS011;17292;51.600;4.994;2023-02-28T04:23:58;1.98;;;1.27;;
30505;SDS011;17292;51.600;4.994;2023-02-28T04:26:35;2.83;;;1.30;;
30505;SDS011;17292;51.600;4.994;2023-02-28T04:29:02;4.65;;;1.52;;
30505;SDS011;17292;51.600;4.994;2023-02-28T04:31:29;4.97;;;1.30;;
30505;SDS011;17292;51.600;4.994;2023-02-28T04:33:55;3.17;;;1.38;;
30505;SDS011;17292;51.600;4.994;2023-02-28T04:36:21;4.47;;;1.23;;
30505;SDS011;17292;51.600;4.994;2023-02-28T04:38:48;4.78;;;1.23;;
30505;SDS011;17292;51.600;4.994;2023-02-28T04:41:15;5.55;;;1.30;;
30505;SDS011;17292;51.600;4.994;2023-02-28T04:43:41;3.13;;;1.10;;
30505;SDS011;17292;51.600;4.994;2023-02-28T04:46:08;2.67;;;1.20;;
30505;SDS011;17292;51.600;4.994;2023-02-28T04:48:36;4.90;;;1.50;;
30505;SDS011;17292;51.600;4.994;2023-02-28T04:51:06;4.75;;;1.20;;
30505;SDS011;17292;51.600;4.994;2023-02-28T04:53:33;2.20;;;1.10;;
30505;SDS011;17292;51.600;4.994;2023-02-28T04:56:00;1.83;;;0.88;;
30505;SDS011;17292;51.600;4.994;2023-02-28T04:58:26;3.97;;;1.30;;
30505;SDS011;17292;51.600;4.994;2023-02-28T05:00:53;3.60;;;1.10;;
30505;SDS011;17292;51.600;4.994;2023-02-28T05:03:20;1.92;;;1.00;;
30505;SDS011;17292;51.600;4.994;2023-02-28T05:05:47;2.88;;;1.25;;
30505;SDS011;17292;51.600;4.994;2023-02-28T05:08:14;2.58;;;0.88;;
30505;SDS011;17292;51.600;4.994;2023-02-28T05:10:40;1.95;;;1.10;;
30505;SDS011;17292;51.600;4.994;2023-02-28T05:13:06;2.75;;;1.20;;
30505;SDS011;17292;51.600;4.994;2023-02-28T05:15:32;3.42;;;1.15;;
30505;SDS011;17292;51.600;4.994;2023-02-28T05:17:58;3.17;;;1.25;;
30505;SDS011;17292;51.600;4.994;2023-02-28T05:20:24;3.15;;;1.33;;
30505;SDS011;17292;51.600;4.994;2023-02-28T05:22:50;1.77;;;1.15;;
30505;SDS011;17292;51.600;4.994;2023-02-28T05:25:18;3.40;;;1.35;;
30505;SDS011;17292;51.600;4.994;2023-02-28T05:27:44;3.20;;;1.25;;
30505;SDS011;17292;51.600;4.994;2023-02-28T05:30:11;3.30;;;1.10;;
30505;SDS011;17292;51.600;4.994;2023-02-28T05:32:37;3.47;;;1.40;;
30505;SDS011;17292;51.600;4.994;2023-02-28T05:35:04;4.55;;;1.10;;
30505;SDS011;17292;51.600;4.994;2023-02-28T05:37:31;2.28;;;0.93;;
30505;SDS011;17292;51.600;4.994;2023-02-28T05:39:57;3.47;;;1.27;;
30505;SDS011;17292;51.600;4.994;2023-02-28T05:42:23;3.25;;;1.05;;
30505;SDS011;17292;51.600;4.994;2023-02-28T05:44:49;3.38;;;1.58;;
30505;SDS011;17292;51.600;4.994;2023-02-28T05:47:16;2.28;;;1.30;;
30505;SDS011;17292;51.600;4.994;2023-02-28T05:49:43;3.58;;;1.25;;
30505;SDS011;17292;51.600;4.994;2023-02-28T05:52:09;2.50;;;1.10;;
30505;SDS011;17292;51.600;4.994;2023-02-28T05:54:35;2.33;;;1.23;;
30505;SDS011;17292;51.600;4.994;2023-02-28T05:57:01;2.85;;;1.33;;
30505;SDS011;17292;51.600;4.994;2023-02-28T05:59:28;3.45;;;1.25;;
30505;SDS011;17292;51.600;4.994;2023-02-28T06:01:54;2.92;;;1.30;;
30505;SDS011;17292;51.600;4.994;2023-02-28T06:04:20;5.00;;;1.67;;
30505;SDS011;17292;51.600;4.994;2023-02-28T06:06:47;2.45;;;1.52;;
30505;SDS011;17292;51.600;4.994;2023-02-28T06:09:13;6.90;;;1.60;;
30505;SDS011;17292;51.600;4.994;2023-02-28T06:11:40;6.25;;;1.40;;
30505;SDS011;17292;51.600;4.994;2023-02-28T06:14:06;4.72;;;1.48;;
30505;SDS011;17292;51.600;4.994;2023-02-28T06:16:33;4.72;;;1.35;;
30505;SDS011;17292;51.600;4.994;2023-02-28T06:19:00;3.83;;;1.13;;
30505;SDS011;17292;51.600;4.994;2023-02-28T06:21:29;2.05;;;1.27;;
30505;SDS011;17292;51.600;4.994;2023-02-28T06:23:56;7.03;;;1.23;;
30505;SDS011;17292;51.600;4.994;2023-02-28T06:26:23;6.55;;;1.73;;
30505;SDS011;17292;51.600;4.994;2023-02-28T06:28:49;5.05;;;2.13;;
30505;SDS011;17292;51.600;4.994;2023-02-28T06:31:16;4.53;;;1.83;;
30505;SDS011;17292;51.600;4.994;2023-02-28T06:33:44;6.20;;;2.35;;
30505;SDS011;17292;51.600;4.994;2023-02-28T06:36:10;4.55;;;2.08;;
30505;SDS011;17292;51.600;4.994;2023-02-28T06:38:37;7.50;;;2.13;;
30505;SDS011;17292;51.600;4.994;2023-02-28T06:41:03;6.78;;;2.08;;
30505;SDS011;17292;51.600;4.994;2023-02-28T06:43:31;5.55;;;1.70;;
30505;SDS011;17292;51.600;4.994;2023-02-28T06:45:58;7.32;;;1.52;;
30505;SDS011;17292;51.600;4.994;2023-02-28T06:48:25;6.63;;;1.58;;
30505;SDS011;17292;51.600;4.994;2023-02-28T06:50:52;7.47;;;1.88;;
30505;SDS011;17292;51.600;4.994;2023-02-28T06:53:18;8.20;;;1.20;;
30505;SDS011;17292;51.600;4.994;2023-02-28T06:55:45;4.80;;;1.20;;
30505;SDS011;17292;51.600;4.994;2023-02-28T06:58:11;4.70;;;1.67;;
30505;SDS011;17292;51.600;4.994;2023-02-28T07:00:43;3.03;;;1.00;;
30505;SDS011;17292;51.600;4.994;2023-02-28T07:03:10;3.20;;;1.23;;
30505;SDS011;17292;51.600;4.994;2023-02-28T07:05:37;4.60;;;1.23;;
30505;SDS011;17292;51.600;4.994;2023-02-28T07:08:03;8.00;;;1.55;;
30505;SDS011;17292;51.600;4.994;2023-02-28T07:10:31;8.05;;;1.30;;
30505;SDS011;17292;51.600;4.994;2023-02-28T07:12:57;8.55;;;1.77;;
30505;SDS011;17292;51.600;4.994;2023-02-28T07:15:24;10.05;;;1.88;;
30505;SDS011;17292;51.600;4.994;2023-02-28T07:17:50;6.05;;;1.55;;
30505;SDS011;17292;51.600;4.994;2023-02-28T07:20:16;7.63;;;1.67;;
30505;SDS011;17292;51.600;4.994;2023-02-28T07:22:43;4.82;;;1.50;;
30505;SDS011;17292;51.600;4.994;2023-02-28T07:25:09;3.53;;;1.52;;
30505;SDS011;17292;51.600;4.994;2023-02-28T07:27:35;6.60;;;1.58;;
30505;SDS011;17292;51.600;4.994;2023-02-28T07:30:01;3.65;;;1.15;;
30505;SDS011;17292;51.600;4.994;2023-02-28T07:32:28;4.45;;;1.52;;
30505;SDS011;17292;51.600;4.994;2023-02-28T07:34:54;5.97;;;1.05;;
30505;SDS011;17292;51.600;4.994;2023-02-28T07:37:21;3.45;;;1.17;;
30505;SDS011;17292;51.600;4.994;2023-02-28T07:39:48;5.10;;;1.23;;
30505;SDS011;17292;51.600;4.994;2023-02-28T07:42:14;5.32;;;1.30;;
30505;SDS011;17292;51.600;4.994;2023-02-28T07:44:40;2.40;;;1.10;;
30505;SDS011;17292;51.600;4.994;2023-02-28T07:47:08;4.25;;;1.45;;
30505;SDS011;17292;51.600;4.994;2023-02-28T07:49:35;2.63;;;1.42;;
30505;SDS011;17292;51.600;4.994;2023-02-28T07:52:02;5.97;;;1.42;;
30505;SDS011;17292;51.600;4.994;2023-02-28T07:54:28;3.38;;;1.15;;
30505;SDS011;17292;51.600;4.994;2023-02-28T07:56:54;2.60;;;1.33;;
30505;SDS011;17292;51.600;4.994;2023-02-28T07:59:21;10.98;;;1.45;;
30505;SDS011;17292;51.600;4.994;2023-02-28T08:01:47;7.18;;;1.30;;
30505;SDS011;17292;51.600;4.994;2023-02-28T08:04:15;3.55;;;1.10;;
30505;SDS011;17292;51.600;4.994;2023-02-28T08:06:41;10.00;;;1.95;;
30505;SDS011;17292;51.600;4.994;2023-02-28T08:09:08;4.85;;;1.33;;
30505;SDS011;17292;51.600;4.994;2023-02-28T08:11:34;5.78;;;1.30;;
30505;SDS011;17292;51.600;4.994;2023-02-28T08:14:01;7.13;;;1.73;;
30505;SDS011;17292;51.600;4.994;2023-02-28T08:16:27;5.18;;;1.10;;
30505;SDS011;17292;51.600;4.994;2023-02-28T08:18:54;2.25;;;1.00;;
30505;SDS011;17292;51.600;4.994;2023-02-28T08:21:20;4.18;;;1.55;;
30505;SDS011;17292;51.600;4.994;2023-02-28T08:23:47;3.10;;;1.63;;
30505;SDS011;17292;51.600;4.994;2023-02-28T08:26:14;4.70;;;1.60;;
30505;SDS011;17292;51.600;4.994;2023-02-28T08:28:40;5.35;;;1.30;;
30505;SDS011;17292;51.600;4.994;2023-02-28T08:31:07;9.60;;;1.80;;
30505;SDS011;17292;51.600;4.994;2023-02-28T08:33:34;6.68;;;1.85;;
30505;SDS011;17292;51.600;4.994;2023-02-28T08:36:00;14.18;;;2.33;;
30505;SDS011;17292;51.600;4.994;2023-02-28T08:38:26;12.50;;;2.20;;
30505;SDS011;17292;51.600;4.994;2023-02-28T08:40:59;8.77;;;1.75;;
30505;SDS011;17292;51.600;4.994;2023-02-28T08:43:25;13.02;;;2.15;;
30505;SDS011;17292;51.600;4.994;2023-02-28T08:45:52;16.88;;;2.10;;
30505;SDS011;17292;51.600;4.994;2023-02-28T08:48:18;13.63;;;1.90;;
30505;SDS011;17292;51.600;4.994;2023-02-28T08:50:53;15.25;;;2.40;;
30505;SDS011;17292;51.600;4.994;2023-02-28T08:53:20;18.75;;;2.45;;
30505;SDS011;17292;51.600;4.994;2023-02-28T08:55:46;22.75;;;2.55;;
30505;SDS011;17292;51.600;4.994;2023-02-28T08:58:12;19.17;;;2.50;;
30505;SDS011;17292;51.600;4.994;2023-02-28T09:00:38;20.00;;;2.95;;
30505;SDS011;17292;51.600;4.994;2023-02-28T09:03:04;10.60;;;2.40;;
30505;SDS011;17292;51.600;4.994;2023-02-28T09:05:30;13.38;;;2.53;;
30505;SDS011;17292;51.600;4.994;2023-02-28T09:07:57;18.73;;;2.40;;
30505;SDS011;17292;51.600;4.994;2023-02-28T09:10:23;22.00;;;2.92;;
30505;SDS011;17292;51.600;4.994;2023-02-28T09:12:49;14.75;;;2.72;;
30505;SDS011;17292;51.600;4.994;2023-02-28T09:15:15;19.95;;;2.78;;
30505;SDS011;17292;51.600;4.994;2023-02-28T09:17:41;14.10;;;2.40;;
30505;SDS011;17292;51.600;4.994;2023-02-28T09:20:07;17.38;;;2.47;;
30505;SDS011;17292;51.600;4.994;2023-02-28T09:22:34;18.33;;;3.08;;
30505;SDS011;17292;51.600;4.994;2023-02-28T09:25:00;10.98;;;2.13;;
30505;SDS011;17292;51.600;4.994;2023-02-28T09:27:26;11.90;;;2.40;;
30505;SDS011;17292;51.600;4.994;2023-02-28T09:29:52;8.43;;;2.00;;
30505;SDS011;17292;51.600;4.994;2023-02-28T09:32:18;13.88;;;1.90;;
30505;SDS011;17292;51.600;4.994;2023-02-28T09:34:44;12.88;;;2.03;;
30505;SDS011;17292;51.600;4.994;2023-02-28T09:37:11;10.88;;;2.13;;
30505;SDS011;17292;51.600;4.994;2023-02-28T09:39:37;14.13;;;2.28;;
30505;SDS011;17292;51.600;4.994;2023-02-28T09:42:03;10.20;;;1.98;;
30505;SDS011;17292;51.600;4.994;2023-02-28T09:44:40;16.38;;;1.95;;
30505;SDS011;17292;51.600;4.994;2023-02-28T09:49:39;15.45;;;2.20;;
30505;SDS011;17292;51.600;4.994;2023-02-28T09:52:27;6.20;;;1.60;;
30505;SDS011;17292;51.600;4.994;2023-02-28T09:54:55;13.50;;;3.00;;
30505;SDS011;17292;51.600;4.994;2023-02-28T09:57:36;15.60;;;1.90;;
30505;SDS011;17292;51.600;4.994;2023-02-28T10:00:28;12.70;;;2.72;;
30505;SDS011;17292;51.600;4.994;2023-02-28T10:05:33;17.35;;;2.70;;
30505;SDS011;17292;51.600;4.994;2023-02-28T10:10:37;10.38;;;1.60;;
30505;SDS011;17292;51.600;4.994;2023-02-28T10:13:06;9.13;;;2.13;;
30505;SDS011;17292;51.600;4.994;2023-02-28T10:15:38;10.40;;;1.80;;
30505;SDS011;17292;51.600;4.994;2023-02-28T10:18:05;10.75;;;2.10;;
30505;SDS011;17292;51.600;4.994;2023-02-28T10:20:33;16.10;;;2.33;;
30505;SDS011;17292;51.600;4.994;2023-02-28T10:25:32;14.25;;;2.58;;
30505;SDS011;17292;51.600;4.994;2023-02-28T10:28:00;10.00;;;1.90;;
30505;SDS011;17292;51.600;4.994;2023-02-28T10:30:27;17.00;;;2.33;;
30505;SDS011;17292;51.600;4.994;2023-02-28T10:32:53;15.07;;;1.90;;
30505;SDS011;17292;51.600;4.994;2023-02-28T10:35:21;9.73;;;2.25;;
30505;SDS011;17292;51.600;4.994;2023-02-28T10:37:49;11.77;;;2.15;;
30505;SDS011;17292;51.600;4.994;2023-02-28T10:45:26;12.65;;;2.20;;
30505;SDS011;17292;51.600;4.994;2023-02-28T10:47:54;12.05;;;2.45;;
30505;SDS011;17292;51.600;4.994;2023-02-28T10:51:06;8.15;;;2.00;;
30505;SDS011;17292;51.600;4.994;2023-02-28T10:55:36;8.75;;;2.28;;
30505;SDS011;17292;51.600;4.994;2023-02-28T10:58:02;7.57;;;1.45;;
30505;SDS011;17292;51.600;4.994;2023-02-28T11:00:32;6.63;;;1.83;;
30505;SDS011;17292;51.600;4.994;2023-02-28T11:02:59;10.40;;;1.80;;
30505;SDS011;17292;51.600;4.994;2023-02-28T11:07:52;5.57;;;1.45;;
30505;SDS011;17292;51.600;4.994;2023-02-28T11:10:19;9.35;;;1.63;;
30505;SDS011;17292;51.600;4.994;2023-02-28T11:12:46;8.30;;;1.70;;
30505;SDS011;17292;51.600;4.994;2023-02-28T11:17:45;7.18;;;1.50;;
30505;SDS011;17292;51.600;4.994;2023-02-28T11:20:22;5.18;;;1.55;;
30505;SDS011;17292;51.600;4.994;2023-02-28T11:22:49;29.63;;;3.45;;
30505;SDS011;17292;51.600;4.994;2023-02-28T11:25:19;12.60;;;2.30;;
30505;SDS011;17292;51.600;4.994;2023-02-28T11:27:51;17.77;;;2.30;;
30505;SDS011;17292;51.600;4.994;2023-02-28T11:32:53;21.88;;;2.90;;
30505;SDS011;17292;51.600;4.994;2023-02-28T11:35:30;28.13;;;3.10;;
30505;SDS011;17292;51.600;4.994;2023-02-28T11:37:59;19.45;;;2.35;;
30505;SDS011;17292;51.600;4.994;2023-02-28T11:42:57;12.43;;;2.20;;
30505;SDS011;17292;51.600;4.994;2023-02-28T11:53:01;10.13;;;2.20;;
30505;SDS011;17292;51.600;4.994;2023-02-28T12:10:26;21.05;;;3.42;;
30505;SDS011;17292;51.600;4.994;2023-02-28T12:18:17;26.73;;;2.63;;
30505;SDS011;17292;51.600;4.994;2023-02-28T12:29:04;22.08;;;2.75;;
30505;SDS011;17292;51.600;4.994;2023-02-28T12:31:36;19.95;;;2.80;;
30505;SDS011;17292;51.600;4.994;2023-02-28T12:34:03;18.77;;;2.75;;
30505;SDS011;17292;51.600;4.994;2023-02-28T12:36:31;33.97;;;3.58;;
30505;SDS011;17292;51.600;4.994;2023-02-28T12:39:03;11.65;;;2.30;;
30505;SDS011;17292;51.600;4.994;2023-02-28T12:44:22;19.35;;;2.97;;
30505;SDS011;17292;51.600;4.994;2023-02-28T12:46:50;19.08;;;3.20;;
30505;SDS011;17292;51.600;4.994;2023-02-28T12:49:33;14.55;;;2.47;;
30505;SDS011;17292;51.600;4.994;2023-02-28T12:52:02;20.13;;;2.63;;
30505;SDS011;17292;51.600;4.994;2023-02-28T12:59:38;22.27;;;2.88;;
30505;SDS011;17292;51.600;4.994;2023-02-28T13:04:44;9.50;;;1.77;;
30505;SDS011;17292;51.600;4.994;2023-02-28T13:09:38;10.95;;;1.88;;
30505;SDS011;17292;51.600;4.994;2023-02-28T13:12:14;7.53;;;1.75;;
30505;SDS011;17292;51.600;4.994;2023-02-28T13:14:41;13.23;;;2.90;;
30505;SDS011;17292;51.600;4.994;2023-02-28T13:19:36;21.65;;;2.83;;
30505;SDS011;17292;51.600;4.994;2023-02-28T13:22:02;22.58;;;2.63;;
30505;SDS011;17292;51.600;4.994;2023-02-28T13:29:41;12.55;;;2.00;;
30505;SDS011;17292;51.600;4.994;2023-02-28T13:39:47;16.13;;;2.08;;
30505;SDS011;17292;51.600;4.994;2023-02-28T13:47:43;21.20;;;3.13;;
30505;SDS011;17292;51.600;4.994;2023-02-28T13:52:44;14.50;;;2.25;;
30505;SDS011;17292;51.600;4.994;2023-02-28T13:57:55;9.88;;;1.80;;
30505;SDS011;17292;51.600;4.994;2023-02-28T14:00:30;16.77;;;2.40;;
30505;SDS011;17292;51.600;4.994;2023-02-28T14:05:32;17.33;;;3.33;;
30505;SDS011;17292;51.600;4.994;2023-02-28T14:08:03;12.90;;;2.28;;
30505;SDS011;17292;51.600;4.994;2023-02-28T14:10:31;9.23;;;2.03;;
30505;SDS011;17292;51.600;4.994;2023-02-28T14:12:59;24.30;;;3.72;;
30505;SDS011;17292;51.600;4.994;2023-02-28T14:18:14;9.25;;;2.25;;
30505;SDS011;17292;51.600;4.994;2023-02-28T14:20:42;18.42;;;2.05;;
30505;SDS011;17292;51.600;4.994;2023-02-28T14:23:18;16.35;;;2.63;;
30505;SDS011;17292;51.600;4.994;2023-02-28T14:31:06;23.60;;;3.10;;
30505;SDS011;17292;51.600;4.994;2023-02-28T14:33:41;11.75;;;2.28;;
30505;SDS011;17292;51.600;4.994;2023-02-28T14:36:13;22.92;;;3.33;;
30505;SDS011;17292;51.600;4.994;2023-02-28T14:38:50;17.13;;;2.95;;
30505;SDS011;17292;51.600;4.994;2023-02-28T14:41:20;27.95;;;3.13;;
30505;SDS011;17292;51.600;4.994;2023-02-28T14:43:48;18.27;;;2.90;;
30505;SDS011;17292;51.600;4.994;2023-02-28T14:46:15;14.52;;;2.40;;
30505;SDS011;17292;51.600;4.994;2023-02-28T14:48:44;16.33;;;2.53;;
30505;SDS011;17292;51.600;4.994;2023-02-28T14:51:11;11.60;;;2.13;;
30505;SDS011;17292;51.600;4.994;2023-02-28T14:53:38;14.43;;;2.40;;
30505;SDS011;17292;51.600;4.994;2023-02-28T14:56:04;9.15;;;1.98;;
30505;SDS011;17292;51.600;4.994;2023-02-28T14:58:31;15.35;;;1.92;;
30505;SDS011;17292;51.600;4.994;2023-02-28T15:00:59;12.57;;;2.55;;
30505;SDS011;17292;51.600;4.994;2023-02-28T15:08:23;14.40;;;2.28;;
30505;SDS011;17292;51.600;4.994;2023-02-28T15:10:55;19.25;;;2.63;;
30505;SDS011;17292;51.600;4.994;2023-02-28T15:13:22;15.82;;;2.30;;
30505;SDS011;17292;51.600;4.994;2023-02-28T15:15:59;13.32;;;2.42;;
30505;SDS011;17292;51.600;4.994;2023-02-28T15:18:31;10.40;;;2.10;;
30505;SDS011;17292;51.600;4.994;2023-02-28T15:21:01;12.43;;;2.25;;
30505;SDS011;17292;51.600;4.994;2023-02-28T15:23:28;12.27;;;2.42;;
30505;SDS011;17292;51.600;4.994;2023-02-28T15:25:55;15.00;;;2.42;;
30505;SDS011;17292;51.600;4.994;2023-02-28T15:28:22;15.95;;;2.85;;
30505;SDS011;17292;51.600;4.994;2023-02-28T15:30:56;10.07;;;2.55;;
30505;SDS011;17292;51.600;4.994;2023-02-28T15:33:25;15.35;;;2.35;;
30505;SDS011;17292;51.600;4.994;2023-02-28T15:35:51;17.40;;;3.35;;
30505;SDS011;17292;51.600;4.994;2023-02-28T15:38:28;25.20;;;2.95;;
30505;SDS011;17292;51.600;4.994;2023-02-28T15:40:55;22.45;;;2.90;;
30505;SDS011;17292;51.600;4.994;2023-02-28T15:43:29;22.33;;;2.90;;
30505;SDS011;17292;51.600;4.994;2023-02-28T15:45:59;9.95;;;2.50;;
30505;SDS011;17292;51.600;4.994;2023-02-28T15:50:57;20.88;;;2.85;;
30505;SDS011;17292;51.600;4.994;2023-02-28T15:53:30;10.70;;;1.98;;
30505;SDS011;17292;51.600;4.994;2023-02-28T15:56:02;17.70;;;2.67;;
30505;SDS011;17292;51.600;4.994;2023-02-28T15:58:28;12.90;;;2.17;;
30505;SDS011;17292;51.600;4.994;2023-02-28T16:03:56;13.40;;;2.20;;
30505;SDS011;17292;51.600;4.994;2023-02-28T16:06:30;7.57;;;2.53;;
30505;SDS011;17292;51.600;4.994;2023-02-28T16:08:57;8.23;;;2.00;;
30505;SDS011;17292;51.600;4.994;2023-02-28T16:11:23;12.23;;;2.28;;
30505;SDS011;17292;51.600;4.994;2023-02-28T16:13:50;10.23;;;2.30;;
30505;SDS011;17292;51.600;4.994;2023-02-28T16:16:20;12.85;;;2.00;;
30505;SDS011;17292;51.600;4.994;2023-02-28T16:18:46;11.32;;;2.00;;
30505;SDS011;17292;51.600;4.994;2023-02-28T16:21:13;13.02;;;2.13;;
30505;SDS011;17292;51.600;4.994;2023-02-28T16:23:39;11.32;;;2.22;;
30505;SDS011;17292;51.600;4.994;2023-02-28T16:26:05;9.40;;;2.17;;
30505;SDS011;17292;51.600;4.994;2023-02-28T16:28:33;9.93;;;2.28;;
30505;SDS011;17292;51.600;4.994;2023-02-28T16:31:00;7.68;;;2.05;;
30505;SDS011;17292;51.600;4.994;2023-02-28T16:33:27;13.23;;;2.15;;
30505;SDS011;17292;51.600;4.994;2023-02-28T16:35:54;14.43;;;2.65;;
30505;SDS011;17292;51.600;4.994;2023-02-28T16:38:20;9.85;;;1.80;;
30505;SDS011;17292;51.600;4.994;2023-02-28T16:40:49;8.63;;;2.03;;
30505;SDS011;17292;51.600;4.994;2023-02-28T16:43:19;10.00;;;2.38;;
30505;SDS011;17292;51.600;4.994;2023-02-28T16:45:48;12.10;;;2.30;;
30505;SDS011;17292;51.600;4.994;2023-02-28T16:48:15;6.95;;;1.98;;
30505;SDS011;17292;51.600;4.994;2023-02-28T16:50:42;13.75;;;2.03;;
30505;SDS011;17292;51.600;4.994;2023-02-28T16:53:09;8.75;;;2.20;;
30505;SDS011;17292;51.600;4.994;2023-02-28T16:55:36;15.77;;;2.45;;
30505;SDS011;17292;51.600;4.994;2023-02-28T16:58:02;12.82;;;2.33;;
30505;SDS011;17292;51.600;4.994;2023-02-28T17:00:29;9.32;;;2.08;;
30505;SDS011;17292;51.600;4.994;2023-02-28T17:02:56;5.13;;;1.60;;
30505;SDS011;17292;51.600;4.994;2023-02-28T17:05:24;9.95;;;2.60;;
30505;SDS011;17292;51.600;4.994;2023-02-28T17:07:52;7.40;;;2.03;;
30505;SDS011;17292;51.600;4.994;2023-02-28T17:10:19;8.55;;;2.13;;
30505;SDS011;17292;51.600;4.994;2023-02-28T17:12:45;12.48;;;2.45;;
30505;SDS011;17292;51.600;4.994;2023-02-28T17:15:12;10.20;;;2.72;;
30505;SDS011;17292;51.600;4.994;2023-02-28T17:17:39;11.50;;;1.95;;
30505;SDS011;17292;51.600;4.994;2023-02-28T17:20:05;14.88;;;2.00;;